sensor_id;sensor_type;location;lat;lon;timestamp;temperature;humidity
2112;DHT22;1062;52.538;13.400;2022-10-28T00:06:09;14.00;99.90
2112;DHT22;1062;52.538;13.400;2022-10-28T00:08:35;14.10;99.90
2112;DHT22;1062;52.538;13.400;2022-10-28T00:11:06;14.10;99.90
2112;DHT22;1062;52.538;13.400;2022-10-28T00:13:32;14.10;99.90
2112;DHT22;1062;52.538;13.400;2022-10-28T00:16:19;14.20;99.90
2112;DHT22;1062;52.538;13.400;2022-10-28T00:18:45;14.10;99.90
2112;DHT22;1062;52.538;13.400;2022-10-28T00:21:14;14.20;99.90
2112;DHT22;1062;52.538;13.400;2022-10-28T00:23:39;14.20;99.90
2112;DHT22;1062;52.538;13.400;2022-10-28T00:26:07;14.20;99.90
2112;DHT22;1062;52.538;13.400;2022-10-28T00:28:33;14.20;99.90
2112;DHT22;1062;52.538;13.400;2022-10-28T00:31:04;14.20;99.90
2112;DHT22;1062;52.538;13.400;2022-10-28T00:33:30;14.20;99.90
2112;DHT22;1062;52.538;13.400;2022-10-28T00:35:55;14.20;99.90
2112;DHT22;1062;52.538;13.400;2022-10-28T00:38:21;14.20;99.90
2112;DHT22;1062;52.538;13.400;2022-10-28T00:40:46;14.20;99.90
2112;DHT22;1062;52.538;13.400;2022-10-28T00:43:12;14.20;99.90
2112;DHT22;1062;52.538;13.400;2022-10-28T00:45:37;14.20;99.90
2112;DHT22;1062;52.538;13.400;2022-10-28T00:48:03;14.10;99.90
2112;DHT22;1062;52.538;13.400;2022-10-28T00:53:20;14.20;99.90
2112;DHT22;1062;52.538;13.400;2022-10-28T00:55:47;14.20;99.90
2112;DHT22;1062;52.538;13.400;2022-10-28T00:58:14;14.10;99.90
2112;DHT22;1062;52.538;13.400;2022-10-28T01:00:40;14.10;99.90
2112;DHT22;1062;52.538;13.400;2022-10-28T01:03:05;14.10;99.90
2112;DHT22;1062;52.538;13.400;2022-10-28T01:05:33;14.20;99.90
2112;DHT22;1062;52.538;13.400;2022-10-28T01:08:01;14.10;99.90
2112;DHT22;1062;52.538;13.400;2022-10-28T01:16:32;14.20;99.90
2112;DHT22;1062;52.538;13.400;2022-10-28T01:19:11;14.20;99.90
2112;DHT22;1062;52.538;13.400;2022-10-28T01:27:27;14.10;99.90
2112;DHT22;1062;52.538;13.400;2022-10-28T01:41:07;14.20;99.90
2112;DHT22;1062;52.538;13.400;2022-10-28T01:44:06;14.20;99.90
2112;DHT22;1062;52.538;13.400;2022-10-28T01:46:30;14.10;99.90
2112;DHT22;1062;52.538;13.400;2022-10-28T01:49:10;14.10;99.90
2112;DHT22;1062;52.538;13.400;2022-10-28T01:51:40;14.10;99.90
2112;DHT22;1062;52.538;13.400;2022-10-28T01:54:08;14.10;99.90
2112;DHT22;1062;52.538;13.400;2022-10-28T01:56:40;14.10;99.90
2112;DHT22;1062;52.538;13.400;2022-10-28T01:59:10;14.00;99.90
2112;DHT22;1062;52.538;13.400;2022-10-28T02:01:36;14.10;99.90
2112;DHT22;1062;52.538;13.400;2022-10-28T02:04:02;14.00;99.90
2112;DHT22;1062;52.538;13.400;2022-10-28T02:06:30;14.00;99.90
2112;DHT22;1062;52.538;13.400;2022-10-28T02:09:17;14.00;99.90
2112;DHT22;1062;52.538;13.400;2022-10-28T02:17:43;14.00;99.90
2112;DHT22;1062;52.538;13.400;2022-10-28T02:20:21;14.00;99.90
2112;DHT22;1062;52.538;13.400;2022-10-28T02:23:09;14.00;99.90
2112;DHT22;1062;52.538;13.400;2022-10-28T02:25:47;14.00;99.90
2112;DHT22;1062;52.538;13.400;2022-10-28T02:28:20;13.90;99.90
2112;DHT22;1062;52.538;13.400;2022-10-28T02:30:50;13.90;99.90
2112;DHT22;1062;52.538;13.400;2022-10-28T02:33:22;13.90;99.90
2112;DHT22;1062;52.538;13.400;2022-10-28T02:35:56;13.90;99.90
2112;DHT22;1062;52.538;13.400;2022-10-28T02:38:35;13.80;99.90
2112;DHT22;1062;52.538;13.400;2022-10-28T02:41:07;13.80;99.90
2112;DHT22;1062;52.538;13.400;2022-10-28T02:43:34;13.80;99.90
2112;DHT22;1062;52.538;13.400;2022-10-28T02:46:03;13.80;99.90
2112;DHT22;1062;52.538;13.400;2022-10-28T02:48:52;13.70;99.90
2112;DHT22;1062;52.538;13.400;2022-10-28T02:51:25;13.70;99.90
2112;DHT22;1062;52.538;13.400;2022-10-28T02:54:01;13.60;99.90
2112;DHT22;1062;52.538;13.400;2022-10-28T02:56:31;13.60;99.90
2112;DHT22;1062;52.538;13.400;2022-10-28T02:58:59;13.60;99.90
2112;DHT22;1062;52.538;13.400;2022-10-28T03:01:25;13.60;99.90
2112;DHT22;1062;52.538;13.400;2022-10-28T03:03:50;13.60;99.90
2112;DHT22;1062;52.538;13.400;2022-10-28T03:06:16;13.50;99.90
2112;DHT22;1062;52.538;13.400;2022-10-28T03:08:41;13.60;99.90
2112;DHT22;1062;52.538;13.400;2022-10-28T03:11:07;13.50;99.90
2112;DHT22;1062;52.538;13.400;2022-10-28T03:13:32;13.50;99.90
2112;DHT22;1062;52.538;13.400;2022-10-28T03:15:58;13.50;99.90
2112;DHT22;1062;52.538;13.400;2022-10-28T03:18:23;13.50;99.90
2112;DHT22;1062;52.538;13.400;2022-10-28T03:20:49;13.50;99.90
2112;DHT22;1062;52.538;13.400;2022-10-28T03:23:14;13.40;99.90
2112;DHT22;1062;52.538;13.400;2022-10-28T03:25:40;13.40;99.90
2112;DHT22;1062;52.538;13.400;2022-10-28T03:28:05;13.40;99.90
2112;DHT22;1062;52.538;13.400;2022-10-28T03:30:31;13.40;99.90
2112;DHT22;1062;52.538;13.400;2022-10-28T03:32:56;13.40;99.90
2112;DHT22;1062;52.538;13.400;2022-10-28T03:35:22;13.40;99.90
2112;DHT22;1062;52.538;13.400;2022-10-28T03:37:47;13.30;99.90
2112;DHT22;1062;52.538;13.400;2022-10-28T03:40:13;13.30;99.90
2112;DHT22;1062;52.538;13.400;2022-10-28T03:42:42;13.30;99.90
2112;DHT22;1062;52.538;13.400;2022-10-28T03:45:08;13.20;99.90
2112;DHT22;1062;52.538;13.400;2022-10-28T03:47:34;13.20;99.90
2112;DHT22;1062;52.538;13.400;2022-10-28T03:50:00;13.20;99.90
2112;DHT22;1062;52.538;13.400;2022-10-28T03:52:26;13.20;99.90
2112;DHT22;1062;52.538;13.400;2022-10-28T03:54:51;13.20;99.90
2112;DHT22;1062;52.538;13.400;2022-10-28T03:57:17;13.10;99.90
2112;DHT22;1062;52.538;13.400;2022-10-28T03:59:43;13.10;99.90
2112;DHT22;1062;52.538;13.400;2022-10-28T04:02:08;13.10;99.90
2112;DHT22;1062;52.538;13.400;2022-10-28T04:04:34;13.10;99.90
2112;DHT22;1062;52.538;13.400;2022-10-28T04:06:59;13.10;99.90
2112;DHT22;1062;52.538;13.400;2022-10-28T04:09:25;13.10;99.90
2112;DHT22;1062;52.538;13.400;2022-10-28T04:11:50;13.10;99.90
2112;DHT22;1062;52.538;13.400;2022-10-28T04:14:16;13.00;99.90
2112;DHT22;1062;52.538;13.400;2022-10-28T04:16:41;13.00;99.90
2112;DHT22;1062;52.538;13.400;2022-10-28T04:19:07;13.00;99.90
2112;DHT22;1062;52.538;13.400;2022-10-28T04:21:32;13.00;99.90
2112;DHT22;1062;52.538;13.400;2022-10-28T04:23:58;13.00;99.90
2112;DHT22;1062;52.538;13.400;2022-10-28T04:26:24;13.00;99.90
2112;DHT22;1062;52.538;13.400;2022-10-28T04:28:49;13.00;99.90
2112;DHT22;1062;52.538;13.400;2022-10-28T04:31:15;13.00;99.90
2112;DHT22;1062;52.538;13.400;2022-10-28T04:33:40;13.00;99.90
2112;DHT22;1062;52.538;13.400;2022-10-28T04:36:06;12.90;99.90
2112;DHT22;1062;52.538;13.400;2022-10-28T04:38:32;12.90;99.90
2112;DHT22;1062;52.538;13.400;2022-10-28T04:40:57;12.90;99.90
2112;DHT22;1062;52.538;13.400;2022-10-28T04:43:23;12.90;99.90
2112;DHT22;1062;52.538;13.400;2022-10-28T04:45:48;12.80;99.90
2112;DHT22;1062;52.538;13.400;2022-10-28T04:48:14;12.80;99.90
2112;DHT22;1062;52.538;13.400;2022-10-28T04:50:40;12.80;99.90
2112;DHT22;1062;52.538;13.400;2022-10-28T04:53:06;12.80;99.90
2112;DHT22;1062;52.538;13.400;2022-10-28T04:55:31;12.80;99.90
2112;DHT22;1062;52.538;13.400;2022-10-28T04:57:58;12.80;99.90
2112;DHT22;1062;52.538;13.400;2022-10-28T05:00:26;12.80;99.90
2112;DHT22;1062;52.538;13.400;2022-10-28T05:02:53;12.80;99.90
2112;DHT22;1062;52.538;13.400;2022-10-28T05:05:19;12.80;99.90
2112;DHT22;1062;52.538;13.400;2022-10-28T05:07:44;12.80;99.90
2112;DHT22;1062;52.538;13.400;2022-10-28T05:10:10;12.80;99.90
2112;DHT22;1062;52.538;13.400;2022-10-28T05:12:39;12.70;99.90
2112;DHT22;1062;52.538;13.400;2022-10-28T05:15:06;12.80;99.90
2112;DHT22;1062;52.538;13.400;2022-10-28T05:17:31;12.70;99.90
2112;DHT22;1062;52.538;13.400;2022-10-28T05:19:57;12.80;99.90
2112;DHT22;1062;52.538;13.400;2022-10-28T05:22:22;12.70;99.90
2112;DHT22;1062;52.538;13.400;2022-10-28T05:24:48;12.80;99.90
2112;DHT22;1062;52.538;13.400;2022-10-28T05:27:14;12.80;99.90
2112;DHT22;1062;52.538;13.400;2022-10-28T05:29:40;12.80;99.90
2112;DHT22;1062;52.538;13.400;2022-10-28T05:32:05;12.80;99.90
2112;DHT22;1062;52.538;13.400;2022-10-28T05:34:31;12.80;99.90
2112;DHT22;1062;52.538;13.400;2022-10-28T05:36:56;12.70;99.90
2112;DHT22;1062;52.538;13.400;2022-10-28T05:39:22;12.80;99.90
2112;DHT22;1062;52.538;13.400;2022-10-28T05:41:48;12.80;99.90
2112;DHT22;1062;52.538;13.400;2022-10-28T05:44:13;12.80;99.90
2112;DHT22;1062;52.538;13.400;2022-10-28T05:46:39;12.80;99.90
2112;DHT22;1062;52.538;13.400;2022-10-28T05:49:04;12.80;99.90
2112;DHT22;1062;52.538;13.400;2022-10-28T05:51:30;12.90;99.90
2112;DHT22;1062;52.538;13.400;2022-10-28T05:53:55;12.90;99.90
2112;DHT22;1062;52.538;13.400;2022-10-28T05:56:21;13.00;99.90
2112;DHT22;1062;52.538;13.400;2022-10-28T05:58:46;13.00;99.90
2112;DHT22;1062;52.538;13.400;2022-10-28T06:01:13;13.00;99.90
2112;DHT22;1062;52.538;13.400;2022-10-28T06:03:39;13.10;99.90
2112;DHT22;1062;52.538;13.400;2022-10-28T06:06:05;13.10;99.90
2112;DHT22;1062;52.538;13.400;2022-10-28T06:08:30;13.20;99.90
2112;DHT22;1062;52.538;13.400;2022-10-28T06:10:56;13.20;99.90
2112;DHT22;1062;52.538;13.400;2022-10-28T06:13:22;13.20;99.90
2112;DHT22;1062;52.538;13.400;2022-10-28T06:15:54;13.30;99.90
2112;DHT22;1062;52.538;13.400;2022-10-28T06:18:21;13.30;99.90
2112;DHT22;1062;52.538;13.400;2022-10-28T06:20:54;13.30;99.90
2112;DHT22;1062;52.538;13.400;2022-10-28T06:23:21;13.40;99.90
2112;DHT22;1062;52.538;13.400;2022-10-28T06:25:47;13.40;99.90
2112;DHT22;1062;52.538;13.400;2022-10-28T06:28:12;13.50;99.90
2112;DHT22;1062;52.538;13.400;2022-10-28T06:30:38;13.50;99.90
2112;DHT22;1062;52.538;13.400;2022-10-28T06:33:03;13.60;99.90
2112;DHT22;1062;52.538;13.400;2022-10-28T06:35:29;13.60;99.90
2112;DHT22;1062;52.538;13.400;2022-10-28T06:37:55;13.60;99.90
2112;DHT22;1062;52.538;13.400;2022-10-28T06:40:21;13.70;99.90
2112;DHT22;1062;52.538;13.400;2022-10-28T06:42:47;13.70;99.90
2112;DHT22;1062;52.538;13.400;2022-10-28T06:45:13;13.70;99.90
2112;DHT22;1062;52.538;13.400;2022-10-28T06:47:38;13.70;99.90
2112;DHT22;1062;52.538;13.400;2022-10-28T06:50:04;13.70;99.90
2112;DHT22;1062;52.538;13.400;2022-10-28T06:52:30;13.70;99.90
2112;DHT22;1062;52.538;13.400;2022-10-28T06:54:55;13.70;99.90
2112;DHT22;1062;52.538;13.400;2022-10-28T06:57:21;13.80;99.90
2112;DHT22;1062;52.538;13.400;2022-10-28T06:59:46;13.80;99.90
2112;DHT22;1062;52.538;13.400;2022-10-28T07:02:14;13.80;99.90
2112;DHT22;1062;52.538;13.400;2022-10-28T07:04:40;13.90;99.90
2112;DHT22;1062;52.538;13.400;2022-10-28T07:07:06;13.90;99.90
2112;DHT22;1062;52.538;13.400;2022-10-28T07:09:32;14.00;99.90
2112;DHT22;1062;52.538;13.400;2022-10-28T07:11:58;14.00;99.90
2112;DHT22;1062;52.538;13.400;2022-10-28T07:14:23;14.10;99.90
2112;DHT22;1062;52.538;13.400;2022-10-28T07:16:49;14.20;99.90
2112;DHT22;1062;52.538;13.400;2022-10-28T07:19:14;14.40;99.90
2112;DHT22;1062;52.538;13.400;2022-10-28T07:21:39;14.50;99.90
2112;DHT22;1062;52.538;13.400;2022-10-28T07:24:05;14.70;99.90
2112;DHT22;1062;52.538;13.400;2022-10-28T07:26:31;14.80;99.90
2112;DHT22;1062;52.538;13.400;2022-10-28T07:28:56;15.00;99.90
2112;DHT22;1062;52.538;13.400;2022-10-28T07:31:22;15.10;99.90
2112;DHT22;1062;52.538;13.400;2022-10-28T07:33:51;15.20;99.90
2112;DHT22;1062;52.538;13.400;2022-10-28T07:36:17;15.40;99.90
2112;DHT22;1062;52.538;13.400;2022-10-28T07:38:43;15.70;99.90
2112;DHT22;1062;52.538;13.400;2022-10-28T07:41:09;15.70;99.90
2112;DHT22;1062;52.538;13.400;2022-10-28T07:43:35;15.90;99.90
2112;DHT22;1062;52.538;13.400;2022-10-28T07:46:01;16.00;99.90
2112;DHT22;1062;52.538;13.400;2022-10-28T07:48:27;16.10;99.90
2112;DHT22;1062;52.538;13.400;2022-10-28T07:50:53;16.20;99.90
2112;DHT22;1062;52.538;13.400;2022-10-28T07:53:18;16.40;99.90
2112;DHT22;1062;52.538;13.400;2022-10-28T07:55:44;16.70;99.90
2112;DHT22;1062;52.538;13.400;2022-10-28T07:58:09;17.20;99.90
2112;DHT22;1062;52.538;13.400;2022-10-28T08:00:34;17.30;99.90
2112;DHT22;1062;52.538;13.400;2022-10-28T08:03:01;17.30;99.90
2112;DHT22;1062;52.538;13.400;2022-10-28T08:05:27;17.80;99.90
2112;DHT22;1062;52.538;13.400;2022-10-28T08:07:53;18.30;99.90
2112;DHT22;1062;52.538;13.400;2022-10-28T08:10:18;18.50;99.90
2112;DHT22;1062;52.538;13.400;2022-10-28T08:12:44;18.80;99.90
2112;DHT22;1062;52.538;13.400;2022-10-28T08:15:10;19.10;99.90
2112;DHT22;1062;52.538;13.400;2022-10-28T08:17:37;19.70;99.90
2112;DHT22;1062;52.538;13.400;2022-10-28T08:20:03;19.70;99.90
2112;DHT22;1062;52.538;13.400;2022-10-28T08:22:29;19.50;99.90
2112;DHT22;1062;52.538;13.400;2022-10-28T08:24:54;19.10;99.90
2112;DHT22;1062;52.538;13.400;2022-10-28T08:27:20;18.50;99.90
2112;DHT22;1062;52.538;13.400;2022-10-28T08:29:45;18.30;99.90
2112;DHT22;1062;52.538;13.400;2022-10-28T08:32:11;18.30;99.90
2112;DHT22;1062;52.538;13.400;2022-10-28T08:34:36;18.60;99.90
2112;DHT22;1062;52.538;13.400;2022-10-28T08:37:02;18.80;99.90
2112;DHT22;1062;52.538;13.400;2022-10-28T08:39:27;18.50;99.90
2112;DHT22;1062;52.538;13.400;2022-10-28T08:45:38;18.00;99.90
2112;DHT22;1062;52.538;13.400;2022-10-28T08:50:54;17.60;99.90
2112;DHT22;1062;52.538;13.400;2022-10-28T08:56:15;18.00;99.90
2112;DHT22;1062;52.538;13.400;2022-10-28T08:58:44;18.50;99.90
2112;DHT22;1062;52.538;13.400;2022-10-28T09:01:18;18.40;99.90
2112;DHT22;1062;52.538;13.400;2022-10-28T09:03:46;18.50;99.90
2112;DHT22;1062;52.538;13.400;2022-10-28T09:06:14;18.70;99.90
2112;DHT22;1062;52.538;13.400;2022-10-28T09:08:45;18.90;99.90
2112;DHT22;1062;52.538;13.400;2022-10-28T09:11:30;19.10;99.90
2112;DHT22;1062;52.538;13.400;2022-10-28T09:17:14;19.20;99.90
2112;DHT22;1062;52.538;13.400;2022-10-28T09:24:51;20.10;99.90
2112;DHT22;1062;52.538;13.400;2022-10-28T09:30:00;20.00;99.90
2112;DHT22;1062;52.538;13.400;2022-10-28T09:32:42;19.70;99.90
2112;DHT22;1062;52.538;13.400;2022-10-28T09:35:15;20.00;99.90
2112;DHT22;1062;52.538;13.400;2022-10-28T09:37:51;20.20;99.90
2112;DHT22;1062;52.538;13.400;2022-10-28T09:40:29;20.30;99.90
2112;DHT22;1062;52.538;13.400;2022-10-28T09:45:31;20.20;99.90
2112;DHT22;1062;52.538;13.400;2022-10-28T09:48:00;19.90;99.90
2112;DHT22;1062;52.538;13.400;2022-10-28T09:50:29;19.90;99.90
2112;DHT22;1062;52.538;13.400;2022-10-28T09:55:48;19.60;99.90
2112;DHT22;1062;52.538;13.400;2022-10-28T09:58:15;19.50;99.90
2112;DHT22;1062;52.538;13.400;2022-10-28T10:00:41;19.50;99.90
2112;DHT22;1062;52.538;13.400;2022-10-28T10:03:07;19.60;99.90
2112;DHT22;1062;52.538;13.400;2022-10-28T10:05:38;19.80;99.90
2112;DHT22;1062;52.538;13.400;2022-10-28T10:08:06;19.80;99.90
2112;DHT22;1062;52.538;13.400;2022-10-28T10:10:41;19.80;99.90
2112;DHT22;1062;52.538;13.400;2022-10-28T10:13:10;19.90;99.90
2112;DHT22;1062;52.538;13.400;2022-10-28T10:15:44;19.90;99.90
2112;DHT22;1062;52.538;13.400;2022-10-28T10:18:16;19.80;99.90
2112;DHT22;1062;52.538;13.400;2022-10-28T10:20:53;19.70;99.90
2112;DHT22;1062;52.538;13.400;2022-10-28T10:26:13;19.80;99.90
2112;DHT22;1062;52.538;13.400;2022-10-28T10:31:21;19.90;99.90
2112;DHT22;1062;52.538;13.400;2022-10-28T10:33:55;20.00;99.90
2112;DHT22;1062;52.538;13.400;2022-10-28T10:36:23;19.90;99.90
2112;DHT22;1062;52.538;13.400;2022-10-28T10:38:58;20.10;99.90
2112;DHT22;1062;52.538;13.400;2022-10-28T10:41:41;20.20;99.90
2112;DHT22;1062;52.538;13.400;2022-10-28T10:46:45;20.10;99.90
2112;DHT22;1062;52.538;13.400;2022-10-28T10:49:14;20.20;99.90
2112;DHT22;1062;52.538;13.400;2022-10-28T10:51:49;20.30;99.90
2112;DHT22;1062;52.538;13.400;2022-10-28T10:54:15;20.40;99.90
2112;DHT22;1062;52.538;13.400;2022-10-28T10:56:41;20.30;99.90
2112;DHT22;1062;52.538;13.400;2022-10-28T10:59:22;20.30;99.90
2112;DHT22;1062;52.538;13.400;2022-10-28T11:01:49;20.40;99.90
2112;DHT22;1062;52.538;13.400;2022-10-28T11:04:17;20.40;99.90
2112;DHT22;1062;52.538;13.400;2022-10-28T11:06:49;20.50;99.90
2112;DHT22;1062;52.538;13.400;2022-10-28T11:11:52;20.70;99.90
2112;DHT22;1062;52.538;13.400;2022-10-28T11:14:29;20.80;99.90
2112;DHT22;1062;52.538;13.400;2022-10-28T11:17:00;20.90;99.90
2112;DHT22;1062;52.538;13.400;2022-10-28T11:19:32;20.90;99.90
2112;DHT22;1062;52.538;13.400;2022-10-28T11:22:08;21.00;99.90
2112;DHT22;1062;52.538;13.400;2022-10-28T11:25:09;21.10;99.90
2112;DHT22;1062;52.538;13.400;2022-10-28T11:30:21;21.20;99.90
2112;DHT22;1062;52.538;13.400;2022-10-28T11:33:07;21.40;99.90
2112;DHT22;1062;52.538;13.400;2022-10-28T11:41:45;21.40;99.90
2112;DHT22;1062;52.538;13.400;2022-10-28T11:44:43;21.50;99.90
2112;DHT22;1062;52.538;13.400;2022-10-28T11:47:34;21.50;99.90
2112;DHT22;1062;52.538;13.400;2022-10-28T11:50:12;21.60;99.90
2112;DHT22;1062;52.538;13.400;2022-10-28T11:52:54;21.60;99.90
2112;DHT22;1062;52.538;13.400;2022-10-28T12:03:42;22.10;99.90
2112;DHT22;1062;52.538;13.400;2022-10-28T12:14:58;21.90;99.90
2112;DHT22;1062;52.538;13.400;2022-10-28T12:17:33;22.10;99.90
2112;DHT22;1062;52.538;13.400;2022-10-28T12:22:49;22.40;99.90
2112;DHT22;1062;52.538;13.400;2022-10-28T12:25:25;22.50;99.90
2112;DHT22;1062;52.538;13.400;2022-10-28T12:27:57;22.60;99.90
2112;DHT22;1062;52.538;13.400;2022-10-28T12:30:29;22.60;99.90
2112;DHT22;1062;52.538;13.400;2022-10-28T12:33:16;22.60;99.90
2112;DHT22;1062;52.538;13.400;2022-10-28T12:35:50;22.70;99.90
2112;DHT22;1062;52.538;13.400;2022-10-28T12:38:19;22.60;99.90
2112;DHT22;1062;52.538;13.400;2022-10-28T12:44:41;22.50;99.90
2112;DHT22;1062;52.538;13.400;2022-10-28T12:47:20;22.40;99.90
2112;DHT22;1062;52.538;13.400;2022-10-28T12:53:13;22.70;99.90
2112;DHT22;1062;52.538;13.400;2022-10-28T12:55:49;22.70;99.90
2112;DHT22;1062;52.538;13.400;2022-10-28T13:00:53;22.70;99.90
2112;DHT22;1062;52.538;13.400;2022-10-28T13:03:19;22.70;99.90
2112;DHT22;1062;52.538;13.400;2022-10-28T13:05:47;22.70;99.90
2112;DHT22;1062;52.538;13.400;2022-10-28T13:08:35;22.60;99.90
2112;DHT22;1062;52.538;13.400;2022-10-28T13:11:30;22.60;99.90
2112;DHT22;1062;52.538;13.400;2022-10-28T13:14:25;22.50;99.90
2112;DHT22;1062;52.538;13.400;2022-10-28T13:17:14;22.70;99.90
2112;DHT22;1062;52.538;13.400;2022-10-28T13:23:08;22.70;99.90
2112;DHT22;1062;52.538;13.400;2022-10-28T13:25:46;22.80;99.90
2112;DHT22;1062;52.538;13.400;2022-10-28T13:28:16;22.80;99.90
2112;DHT22;1062;52.538;13.400;2022-10-28T13:31:12;22.80;99.90
2112;DHT22;1062;52.538;13.400;2022-10-28T13:36:27;22.80;99.90
2112;DHT22;1062;52.538;13.400;2022-10-28T13:38:59;22.70;99.90
2112;DHT22;1062;52.538;13.400;2022-10-28T13:41:32;22.70;99.90
2112;DHT22;1062;52.538;13.400;2022-10-28T13:54:58;22.50;99.90
2112;DHT22;1062;52.538;13.400;2022-10-28T13:57:46;22.50;99.90
2112;DHT22;1062;52.538;13.400;2022-10-28T14:03:01;22.40;99.90
2112;DHT22;1062;52.538;13.400;2022-10-28T14:08:04;22.30;99.90
2112;DHT22;1062;52.538;13.400;2022-10-28T14:10:39;22.30;99.90
2112;DHT22;1062;52.538;13.400;2022-10-28T14:13:16;22.30;99.90
2112;DHT22;1062;52.538;13.400;2022-10-28T14:15:44;22.10;99.90
2112;DHT22;1062;52.538;13.400;2022-10-28T14:41:48;21.80;99.90
2112;DHT22;1062;52.538;13.400;2022-10-28T14:50:19;21.80;99.90
2112;DHT22;1062;52.538;13.400;2022-10-28T14:52:47;21.70;99.90
2112;DHT22;1062;52.538;13.400;2022-10-28T14:55:28;21.60;99.90
2112;DHT22;1062;52.538;13.400;2022-10-28T14:58:19;21.60;99.90
2112;DHT22;1062;52.538;13.400;2022-10-28T15:01:01;21.50;99.90
2112;DHT22;1062;52.538;13.400;2022-10-28T15:03:28;21.40;99.90
2112;DHT22;1062;52.538;13.400;2022-10-28T15:05:53;21.40;99.90
2112;DHT22;1062;52.538;13.400;2022-10-28T15:08:19;21.40;99.90
2112;DHT22;1062;52.538;13.400;2022-10-28T15:10:47;21.30;99.90
2112;DHT22;1062;52.538;13.400;2022-10-28T15:13:16;21.20;99.90
2112;DHT22;1062;52.538;13.400;2022-10-28T15:15:54;21.10;99.90
2112;DHT22;1062;52.538;13.400;2022-10-28T15:18:24;21.10;99.90
2112;DHT22;1062;52.538;13.400;2022-10-28T15:21:07;21.00;99.90
2112;DHT22;1062;52.538;13.400;2022-10-28T15:23:33;21.00;99.90
2112;DHT22;1062;52.538;13.400;2022-10-28T15:26:15;20.90;99.90
2112;DHT22;1062;52.538;13.400;2022-10-28T15:28:42;20.80;99.90
2112;DHT22;1062;52.538;13.400;2022-10-28T15:31:08;20.80;99.90
2112;DHT22;1062;52.538;13.400;2022-10-28T15:33:38;20.70;99.90
2112;DHT22;1062;52.538;13.400;2022-10-28T15:36:25;20.60;99.90
2112;DHT22;1062;52.538;13.400;2022-10-28T15:39:08;20.60;99.90
2112;DHT22;1062;52.538;13.400;2022-10-28T15:41:43;20.50;99.90
2112;DHT22;1062;52.538;13.400;2022-10-28T15:44:29;20.50;99.90
2112;DHT22;1062;52.538;13.400;2022-10-28T15:46:55;20.40;99.90
2112;DHT22;1062;52.538;13.400;2022-10-28T15:49:37;20.30;99.90
2112;DHT22;1062;52.538;13.400;2022-10-28T15:52:19;20.30;99.90
2112;DHT22;1062;52.538;13.400;2022-10-28T15:54:56;20.20;99.90
2112;DHT22;1062;52.538;13.400;2022-10-28T15:57:24;20.10;99.90
2112;DHT22;1062;52.538;13.400;2022-10-28T16:02:52;20.00;99.90
2112;DHT22;1062;52.538;13.400;2022-10-28T16:08:03;19.90;99.90
2112;DHT22;1062;52.538;13.400;2022-10-28T16:10:35;19.90;99.90
2112;DHT22;1062;52.538;13.400;2022-10-28T16:13:02;19.90;99.90
2112;DHT22;1062;52.538;13.400;2022-10-28T16:15:29;19.80;99.90
2112;DHT22;1062;52.538;13.400;2022-10-28T16:17:54;19.70;99.90
2112;DHT22;1062;52.538;13.400;2022-10-28T16:20:23;19.70;99.90
2112;DHT22;1062;52.538;13.400;2022-10-28T16:22:51;19.60;99.90
2112;DHT22;1062;52.538;13.400;2022-10-28T16:25:19;19.70;99.90
2112;DHT22;1062;52.538;13.400;2022-10-28T16:27:45;19.60;99.90
2112;DHT22;1062;52.538;13.400;2022-10-28T16:30:11;19.50;99.90
2112;DHT22;1062;52.538;13.400;2022-10-28T16:32:45;19.40;99.90
2112;DHT22;1062;52.538;13.400;2022-10-28T16:35:23;19.40;99.90
2112;DHT22;1062;52.538;13.400;2022-10-28T16:37:49;19.30;99.90
2112;DHT22;1062;52.538;13.400;2022-10-28T16:40:15;19.30;99.90
2112;DHT22;1062;52.538;13.400;2022-10-28T16:42:41;19.30;99.90
2112;DHT22;1062;52.538;13.400;2022-10-28T16:45:13;19.30;99.90
2112;DHT22;1062;52.538;13.400;2022-10-28T16:47:39;19.20;99.90
2112;DHT22;1062;52.538;13.400;2022-10-28T16:50:05;19.20;99.90
2112;DHT22;1062;52.538;13.400;2022-10-28T16:52:31;19.10;99.90
2112;DHT22;1062;52.538;13.400;2022-10-28T16:54:58;19.00;99.90
2112;DHT22;1062;52.538;13.400;2022-10-28T16:57:24;19.00;99.90
2112;DHT22;1062;52.538;13.400;2022-10-28T16:59:50;19.00;99.90
2112;DHT22;1062;52.538;13.400;2022-10-28T17:02:28;19.00;99.90
2112;DHT22;1062;52.538;13.400;2022-10-28T17:04:55;19.00;99.90
2112;DHT22;1062;52.538;13.400;2022-10-28T17:07:21;18.90;99.90
2112;DHT22;1062;52.538;13.400;2022-10-28T17:09:46;18.90;99.90
2112;DHT22;1062;52.538;13.400;2022-10-28T17:12:14;18.90;99.90
2112;DHT22;1062;52.538;13.400;2022-10-28T17:14:40;18.90;99.90
2112;DHT22;1062;52.538;13.400;2022-10-28T17:17:06;18.80;99.90
2112;DHT22;1062;52.538;13.400;2022-10-28T17:19:32;18.90;99.90
2112;DHT22;1062;52.538;13.400;2022-10-28T17:21:57;18.90;99.90
2112;DHT22;1062;52.538;13.400;2022-10-28T17:24:23;18.80;99.90
2112;DHT22;1062;52.538;13.400;2022-10-28T17:26:48;18.80;99.90
2112;DHT22;1062;52.538;13.400;2022-10-28T17:29:14;18.80;99.90
2112;DHT22;1062;52.538;13.400;2022-10-28T17:31:39;18.80;99.90
2112;DHT22;1062;52.538;13.400;2022-10-28T17:34:05;18.70;99.90
2112;DHT22;1062;52.538;13.400;2022-10-28T17:36:32;18.70;99.90
2112;DHT22;1062;52.538;13.400;2022-10-28T17:39:00;18.70;99.90
2112;DHT22;1062;52.538;13.400;2022-10-28T17:41:26;18.70;99.90
2112;DHT22;1062;52.538;13.400;2022-10-28T17:43:52;18.60;99.90
2112;DHT22;1062;52.538;13.400;2022-10-28T17:46:18;18.60;99.90
2112;DHT22;1062;52.538;13.400;2022-10-28T17:48:43;18.60;99.90
2112;DHT22;1062;52.538;13.400;2022-10-28T17:51:09;18.60;99.90
2112;DHT22;1062;52.538;13.400;2022-10-28T17:53:35;18.60;99.90
2112;DHT22;1062;52.538;13.400;2022-10-28T17:56:02;18.50;99.90
2112;DHT22;1062;52.538;13.400;2022-10-28T17:58:28;18.60;99.90
2112;DHT22;1062;52.538;13.400;2022-10-28T18:00:58;18.60;99.90
2112;DHT22;1062;52.538;13.400;2022-10-28T18:03:25;18.50;99.90
2112;DHT22;1062;52.538;13.400;2022-10-28T18:05:50;18.50;99.90
2112;DHT22;1062;52.538;13.400;2022-10-28T18:08:16;18.40;99.90
2112;DHT22;1062;52.538;13.400;2022-10-28T18:10:55;18.30;99.90
2112;DHT22;1062;52.538;13.400;2022-10-28T18:13:32;18.30;99.90
2112;DHT22;1062;52.538;13.400;2022-10-28T18:16:05;18.30;99.90
2112;DHT22;1062;52.538;13.400;2022-10-28T18:18:31;18.30;99.90
2112;DHT22;1062;52.538;13.400;2022-10-28T18:20:57;18.30;99.90
2112;DHT22;1062;52.538;13.400;2022-10-28T18:23:23;18.30;99.90
2112;DHT22;1062;52.538;13.400;2022-10-28T18:25:58;18.30;99.90
2112;DHT22;1062;52.538;13.400;2022-10-28T18:28:25;18.20;99.90
2112;DHT22;1062;52.538;13.400;2022-10-28T18:30:50;18.20;99.90
2112;DHT22;1062;52.538;13.400;2022-10-28T18:33:16;18.20;99.90
2112;DHT22;1062;52.538;13.400;2022-10-28T18:35:41;18.10;99.90
2112;DHT22;1062;52.538;13.400;2022-10-28T18:38:07;18.10;99.90
2112;DHT22;1062;52.538;13.400;2022-10-28T18:40:32;18.10;99.90
2112;DHT22;1062;52.538;13.400;2022-10-28T18:42:58;18.10;99.90
2112;DHT22;1062;52.538;13.400;2022-10-28T18:45:24;18.00;99.90
2112;DHT22;1062;52.538;13.400;2022-10-28T18:47:49;18.00;99.90